createdAt,value
2019-03-31T00:02:19.260Z,22.97
2019-03-31T00:04:49.891Z,20.93
2019-03-31T00:07:20.779Z,20.73
2019-03-31T00:09:51.357Z,18.57
2019-03-31T00:12:22.249Z,19.37
2019-03-31T00:14:53.086Z,19.67
2019-03-31T00:17:23.821Z,19.73
2019-03-31T00:19:54.723Z,20.37
2019-03-31T00:22:25.584Z,20.03
2019-03-31T00:24:56.112Z,20.00
2019-03-31T00:27:27.055Z,19.73
2019-03-31T00:29:57.902Z,19.83
2019-03-31T00:32:28.909Z,19.53
2019-03-31T00:34:59.801Z,20.37
2019-03-31T00:37:30.252Z,20.60
2019-03-31T00:40:01.293Z,19.67
2019-03-31T00:42:32.233Z,19.80
2019-03-31T00:45:03.148Z,19.57
2019-03-31T00:47:34.083Z,19.53
2019-03-31T00:50:07.244Z,19.83
2019-03-31T00:52:38.081Z,20.00
2019-03-31T00:55:09.093Z,19.33
2019-03-31T00:57:39.607Z,19.67
2019-03-31T01:00:13.042Z,18.60
2019-03-31T01:02:44.126Z,19.20
2019-03-31T01:05:14.749Z,18.90
2019-03-31T01:07:45.949Z,18.30
2019-03-31T01:10:16.969Z,19.23
2019-03-31T01:12:47.956Z,19.47
2019-03-31T01:15:23.947Z,19.50
2019-03-31T01:17:55.683Z,19.57
2019-03-31T01:20:26.391Z,19.83
2019-03-31T01:22:57.302Z,19.33
2019-03-31T01:25:28.277Z,20.13
2019-03-31T01:27:59.114Z,19.93
2019-03-31T01:30:30.586Z,20.90
2019-03-31T01:33:01.625Z,19.40
2019-03-31T01:35:32.669Z,20.63
2019-03-31T01:38:06.754Z,20.20
2019-03-31T01:40:37.593Z,20.53
2019-03-31T01:43:08.093Z,20.13
2019-03-31T01:45:38.895Z,20.40
2019-03-31T01:48:09.839Z,20.83
2019-03-31T01:50:40.709Z,20.33
2019-03-31T01:53:11.465Z,20.63
2019-03-31T01:55:42.759Z,20.60
2019-03-31T01:58:13.591Z,21.60
2019-03-31T02:00:46.189Z,21.40
2019-03-31T02:03:16.987Z,21.43
2019-03-31T02:05:47.421Z,21.77
2019-03-31T02:08:18.227Z,22.43
2019-03-31T02:10:48.983Z,22.83
2019-03-31T02:13:19.445Z,21.97
2019-03-31T02:15:50.117Z,22.30
2019-03-31T02:18:20.851Z,22.23
2019-03-31T02:20:54.373Z,22.37
2019-03-31T02:23:25.207Z,21.10
2019-03-31T02:25:55.955Z,21.83
2019-03-31T02:28:26.791Z,22.33
2019-03-31T02:30:57.306Z,22.30
2019-03-31T02:33:31.226Z,22.60
2019-03-31T02:36:02.173Z,23.63
2019-03-31T02:38:33.014Z,22.87
2019-03-31T02:41:03.433Z,23.00
2019-03-31T02:43:34.144Z,23.57
2019-03-31T02:46:05.019Z,24.60
2019-03-31T02:48:35.839Z,24.23
2019-03-31T02:51:06.674Z,24.27
2019-03-31T02:53:37.221Z,24.63
2019-03-31T02:56:08.307Z,23.83
2019-03-31T02:58:39.569Z,24.77
2019-03-31T03:01:10.830Z,24.73
2019-03-31T03:03:42.162Z,24.20
2019-03-31T03:06:15.665Z,25.20
2019-03-31T03:08:49.123Z,24.47
2019-03-31T03:11:21.364Z,25.30
2019-03-31T03:13:53.154Z,25.23
2019-03-31T03:16:24.145Z,25.23
2019-03-31T03:18:54.977Z,23.93
2019-03-31T03:21:26.207Z,25.03
2019-03-31T03:23:57.776Z,25.43
2019-03-31T03:26:28.719Z,24.67
2019-03-31T03:28:59.138Z,26.77
2019-03-31T03:31:33.145Z,26.10
2019-03-31T03:34:03.891Z,25.70
2019-03-31T03:36:34.845Z,26.23
2019-03-31T03:39:07.974Z,27.40
2019-03-31T03:41:38.842Z,27.23
2019-03-31T03:44:09.693Z,27.43
2019-03-31T03:46:40.548Z,28.03
2019-03-31T03:49:11.550Z,27.67
2019-03-31T03:51:42.488Z,27.60
2019-03-31T03:54:13.343Z,28.60
2019-03-31T03:56:44.083Z,29.37
2019-03-31T03:59:14.822Z,29.13
2019-03-31T04:01:45.646Z,28.47
2019-03-31T04:04:16.378Z,29.03
2019-03-31T04:06:47.104Z,30.17
2019-03-31T04:09:17.846Z,30.93
2019-03-31T04:11:48.721Z,29.50
2019-03-31T04:14:19.628Z,30.20
2019-03-31T04:16:50.452Z,31.20
2019-03-31T04:19:21.212Z,31.23
2019-03-31T04:21:52.036Z,31.87
2019-03-31T04:24:22.768Z,30.90
2019-03-31T04:26:53.526Z,32.57
2019-03-31T04:29:23.984Z,32.20
2019-03-31T04:31:54.779Z,33.80
2019-03-31T04:34:25.491Z,31.47
2019-03-31T04:36:56.391Z,32.30
2019-03-31T04:39:26.870Z,33.30
2019-03-31T04:41:57.386Z,32.87
2019-03-31T04:44:28.341Z,33.37
2019-03-31T04:46:59.188Z,32.53
2019-03-31T04:49:30.001Z,33.10
2019-03-31T04:52:02.118Z,34.07
2019-03-31T04:54:33.028Z,34.07
2019-03-31T04:57:04.688Z,34.10
2019-03-31T04:59:35.736Z,33.57
2019-03-31T05:02:06.555Z,34.87
2019-03-31T05:04:37.855Z,33.57
2019-03-31T05:07:08.360Z,34.27
2019-03-31T05:09:39.156Z,35.37
2019-03-31T05:12:10.106Z,32.40
2019-03-31T05:14:40.926Z,33.60
2019-03-31T05:17:11.675Z,34.33
2019-03-31T05:19:42.498Z,33.97
2019-03-31T05:22:13.216Z,34.40
2019-03-31T05:24:43.661Z,35.87
2019-03-31T05:27:14.396Z,35.57
2019-03-31T05:29:45.242Z,34.83
2019-03-31T05:32:16.004Z,35.20
2019-03-31T05:34:46.841Z,36.23
2019-03-31T05:37:17.666Z,35.37
2019-03-31T05:39:48.486Z,35.33
2019-03-31T05:42:19.303Z,35.80
2019-03-31T05:44:50.125Z,36.37
2019-03-31T05:47:21.006Z,37.67
2019-03-31T05:49:51.830Z,36.83
2019-03-31T05:52:22.756Z,38.03
2019-03-31T05:54:53.123Z,34.70
2019-03-31T05:57:23.626Z,34.23
2019-03-31T05:59:54.957Z,31.47
2019-03-31T06:02:25.696Z,32.40
2019-03-31T06:04:56.441Z,32.33
2019-03-31T06:07:27.282Z,30.13
2019-03-31T06:09:58.164Z,31.80
2019-03-31T06:12:28.951Z,28.23
2019-03-31T06:14:59.800Z,28.70
2019-03-31T06:17:30.619Z,29.03
2019-03-31T06:20:01.499Z,29.33
2019-03-31T06:22:32.295Z,27.43
2019-03-31T06:25:03.038Z,28.07
2019-03-31T06:27:33.864Z,26.60
2019-03-31T06:30:07.951Z,26.20
2019-03-31T06:32:38.720Z,27.27
2019-03-31T06:35:09.687Z,25.23
2019-03-31T06:37:42.377Z,27.40
2019-03-31T06:40:13.785Z,25.67
2019-03-31T06:42:47.483Z,25.30
2019-03-31T06:45:18.321Z,26.27
2019-03-31T06:47:49.075Z,25.40
2019-03-31T06:50:19.886Z,26.00
2019-03-31T06:52:50.296Z,26.13
2019-03-31T06:55:21.179Z,26.63
2019-03-31T06:57:52.041Z,28.27
2019-03-31T07:00:22.531Z,27.33
2019-03-31T07:02:53.353Z,27.27
2019-03-31T07:05:24.191Z,25.17
2019-03-31T07:07:56.577Z,23.70
2019-03-31T07:10:27.183Z,21.63
2019-03-31T07:12:59.758Z,20.67
2019-03-31T07:15:31.119Z,20.73
2019-03-31T07:18:02.117Z,20.57
2019-03-31T07:20:32.971Z,19.93
2019-03-31T07:23:03.879Z,18.77
2019-03-31T07:25:37.173Z,19.67
2019-03-31T07:28:09.535Z,19.27
2019-03-31T07:30:40.402Z,18.80
2019-03-31T07:33:11.327Z,19.50
2019-03-31T07:35:42.303Z,18.23
2019-03-31T07:38:14.399Z,19.83
2019-03-31T07:40:46.858Z,17.80
2019-03-31T07:43:18.078Z,19.30
2019-03-31T07:45:48.875Z,18.37
2019-03-31T07:48:19.923Z,16.77
2019-03-31T07:50:50.839Z,17.50
2019-03-31T07:53:21.787Z,17.87
2019-03-31T07:55:52.666Z,18.47
2019-03-31T07:58:23.669Z,18.87
2019-03-31T08:00:54.505Z,17.93
2019-03-31T08:03:25.439Z,17.07
2019-03-31T08:05:56.279Z,16.87
2019-03-31T08:08:28.637Z,16.63
2019-03-31T08:10:59.541Z,16.13
2019-03-31T08:13:30.430Z,14.70
2019-03-31T08:16:03.646Z,12.23
2019-03-31T08:18:33.825Z,12.60
2019-03-31T08:21:06.080Z,11.87
2019-03-31T08:23:36.909Z,11.87
2019-03-31T08:26:07.805Z,12.53
2019-03-31T08:28:38.513Z,12.70
2019-03-31T08:31:09.463Z,13.07
2019-03-31T08:33:40.365Z,14.30
2019-03-31T08:36:11.135Z,13.03
2019-03-31T08:38:41.964Z,14.83
2019-03-31T08:41:14.021Z,15.20
2019-03-31T08:43:44.850Z,13.77
2019-03-31T08:46:15.695Z,14.93
2019-03-31T08:48:46.591Z,14.97
2019-03-31T08:51:17.115Z,14.83
2019-03-31T08:53:47.625Z,13.70
2019-03-31T08:56:18.461Z,13.50
2019-03-31T08:58:49.259Z,15.10
2019-03-31T09:01:21.483Z,14.13
2019-03-31T09:03:52.295Z,13.47
2019-03-31T09:06:25.549Z,11.80
2019-03-31T09:08:56.393Z,11.40
2019-03-31T09:11:27.246Z,12.07
2019-03-31T09:13:58.149Z,12.10
2019-03-31T09:16:28.925Z,12.40
2019-03-31T09:18:59.854Z,12.50
2019-03-31T09:21:30.689Z,13.23
2019-03-31T09:24:01.508Z,12.60
2019-03-31T09:26:32.496Z,13.83
2019-03-31T09:29:03.547Z,13.57
2019-03-31T09:31:34.679Z,13.80
2019-03-31T09:34:05.386Z,14.63
2019-03-31T09:36:36.212Z,14.97
2019-03-31T09:39:07.087Z,14.30
2019-03-31T09:41:37.872Z,13.77
2019-03-31T09:44:08.675Z,12.63
2019-03-31T09:46:39.763Z,10.13
2019-03-31T09:49:10.731Z,9.50
2019-03-31T09:51:41.670Z,9.63
2019-03-31T09:54:12.606Z,9.77
2019-03-31T09:56:43.530Z,10.10
2019-03-31T09:59:14.466Z,9.97
2019-03-31T10:01:45.438Z,9.50
2019-03-31T10:04:16.268Z,10.10
2019-03-31T10:06:47.369Z,10.57
2019-03-31T10:09:18.267Z,11.80
2019-03-31T10:11:49.079Z,11.30
2019-03-31T10:14:19.568Z,10.37
2019-03-31T10:16:50.233Z,10.43
2019-03-31T10:19:21.122Z,9.23
2019-03-31T10:21:51.916Z,10.23
2019-03-31T10:24:22.866Z,10.27
2019-03-31T10:26:53.362Z,9.90
2019-03-31T10:29:24.307Z,9.57
2019-03-31T10:31:55.046Z,8.50
2019-03-31T10:34:25.870Z,8.20
2019-03-31T10:36:56.360Z,7.93
2019-03-31T10:39:27.134Z,8.20
2019-03-31T10:41:57.984Z,8.13
2019-03-31T10:44:29.726Z,8.00
2019-03-31T10:47:00.691Z,7.33
2019-03-31T10:49:31.414Z,7.70
2019-03-31T10:52:02.254Z,7.17
2019-03-31T10:54:33.074Z,7.57
2019-03-31T10:57:04.076Z,6.90
2019-03-31T10:59:35.830Z,7.07
2019-03-31T11:02:06.822Z,7.03
2019-03-31T11:04:38.008Z,6.50
2019-03-31T11:07:08.912Z,6.57
2019-03-31T11:09:39.360Z,5.90
2019-03-31T11:12:10.158Z,6.17
2019-03-31T11:14:40.888Z,6.57
2019-03-31T11:17:11.634Z,6.60
2019-03-31T11:19:42.377Z,6.27
2019-03-31T11:22:17.192Z,6.67
2019-03-31T11:24:49.138Z,6.73
2019-03-31T11:27:19.888Z,6.43
2019-03-31T11:29:50.709Z,5.83
2019-03-31T11:32:22.393Z,6.10
2019-03-31T11:34:53.237Z,6.23
2019-03-31T11:37:24.051Z,5.83
2019-03-31T11:39:54.820Z,5.60
2019-03-31T11:42:25.518Z,5.50
2019-03-31T11:44:56.366Z,5.23
2019-03-31T11:47:26.894Z,5.57
2019-03-31T11:49:57.719Z,4.00
2019-03-31T11:52:28.622Z,4.33
2019-03-31T11:54:59.408Z,3.57
2019-03-31T11:57:30.126Z,3.20
2019-03-31T12:00:00.895Z,3.07
2019-03-31T12:02:31.644Z,2.80
2019-03-31T12:05:02.546Z,3.03
2019-03-31T12:07:46.035Z,2.50
2019-03-31T12:10:07.535Z,2.23
2019-03-31T12:12:38.369Z,1.93
2019-03-31T12:15:10.089Z,1.90
2019-03-31T12:17:40.855Z,2.27
2019-03-31T12:20:12.594Z,1.80
2019-03-31T12:22:43.432Z,1.83
2019-03-31T12:25:14.295Z,2.03
2019-03-31T12:27:45.756Z,1.70
2019-03-31T12:30:19.781Z,1.80
2019-03-31T12:32:50.640Z,1.80
2019-03-31T12:35:21.347Z,1.53
2019-03-31T12:37:52.272Z,1.60
2019-03-31T12:40:31.560Z,1.47
2019-03-31T12:43:02.017Z,1.70
2019-03-31T12:45:32.975Z,1.60
2019-03-31T12:48:03.770Z,1.73
2019-03-31T12:50:34.771Z,1.57
2019-03-31T12:53:05.260Z,1.60
2019-03-31T12:55:36.380Z,2.00
2019-03-31T12:58:07.218Z,1.73
2019-03-31T13:00:38.164Z,1.47
2019-03-31T13:03:09.010Z,2.00
2019-03-31T13:05:40.389Z,1.93
2019-03-31T13:08:11.189Z,1.80
2019-03-31T13:10:42.045Z,1.73
2019-03-31T13:13:12.938Z,2.13
2019-03-31T13:15:43.681Z,2.10
2019-03-31T13:18:14.688Z,1.90
2019-03-31T13:20:45.456Z,2.37
2019-03-31T13:23:16.364Z,2.03
2019-03-31T13:25:47.257Z,1.70
2019-03-31T13:28:18.105Z,1.70
2019-03-31T13:30:48.898Z,2.23
2019-03-31T13:33:21.190Z,1.75
2019-03-31T13:35:53.390Z,2.30
2019-03-31T13:38:24.397Z,1.70
2019-03-31T13:40:54.853Z,1.70
2019-03-31T13:43:26.854Z,1.60
2019-03-31T13:46:00.172Z,1.80
2019-03-31T13:48:30.083Z,2.13
2019-03-31T13:51:00.917Z,2.53
2019-03-31T13:53:31.835Z,1.97
2019-03-31T13:56:02.632Z,2.17
2019-03-31T13:58:34.094Z,1.93
2019-03-31T14:01:05.256Z,1.90
2019-03-31T14:03:36.212Z,1.90
2019-03-31T14:06:06.764Z,1.63
2019-03-31T14:08:37.517Z,1.67
2019-03-31T14:11:08.435Z,2.30
2019-03-31T14:13:39.402Z,2.20
2019-03-31T14:16:10.305Z,2.00
2019-03-31T14:18:41.153Z,2.23
2019-03-31T14:21:12.005Z,2.23
2019-03-31T14:23:43.943Z,1.90
2019-03-31T14:26:14.775Z,1.67
2019-03-31T14:28:45.531Z,1.80
2019-03-31T14:31:16.383Z,1.90
2019-03-31T14:33:48.073Z,2.43
2019-03-31T14:36:18.785Z,2.37
2019-03-31T14:38:49.608Z,1.80
2019-03-31T14:41:20.412Z,1.63
2019-03-31T14:43:50.882Z,1.80
2019-03-31T14:46:21.890Z,2.20
2019-03-31T14:49:11.371Z,2.37
2019-03-31T14:51:30.736Z,2.53
2019-03-31T14:54:01.672Z,1.97
2019-03-31T14:56:32.154Z,1.73
2019-03-31T14:59:02.934Z,1.97
2019-03-31T15:01:33.383Z,1.63
2019-03-31T15:04:04.207Z,2.00
2019-03-31T15:06:35.091Z,2.10
2019-03-31T15:09:08.253Z,2.37
2019-03-31T15:11:38.807Z,2.10
2019-03-31T15:14:09.592Z,2.17
2019-03-31T15:16:40.326Z,2.03
2019-03-31T15:19:10.791Z,1.60
2019-03-31T15:21:44.547Z,1.70
2019-03-31T15:24:13.663Z,1.63
2019-03-31T15:26:44.378Z,1.67
2019-03-31T15:29:15.285Z,1.53
2019-03-31T15:31:46.059Z,1.90
2019-03-31T15:34:20.539Z,1.77
2019-03-31T15:36:51.240Z,1.90
2019-03-31T15:39:23.635Z,1.23
2019-03-31T15:41:54.033Z,1.93
2019-03-31T15:44:24.416Z,2.20
2019-03-31T15:46:55.326Z,1.40
2019-03-31T15:49:25.826Z,2.37
2019-03-31T15:51:56.642Z,2.10
2019-03-31T15:54:27.189Z,2.67
2019-03-31T15:56:58.132Z,1.57
2019-03-31T15:59:28.966Z,1.23
2019-03-31T16:02:02.794Z,1.13
2019-03-31T16:04:33.612Z,1.40
2019-03-31T16:07:06.637Z,1.10
2019-03-31T16:09:37.297Z,1.50
2019-03-31T16:12:10.474Z,1.30
2019-03-31T16:14:58.800Z,1.17
2019-03-31T16:17:29.575Z,1.37
2019-03-31T16:20:02.846Z,1.30
2019-03-31T16:22:32.916Z,1.50
2019-03-31T16:25:09.272Z,1.70
2019-03-31T16:27:40.036Z,1.87
2019-03-31T16:30:14.318Z,1.80
2019-03-31T16:32:46.583Z,2.17
2019-03-31T16:35:17.489Z,2.43
2019-03-31T16:37:48.296Z,1.80
2019-03-31T16:40:19.134Z,1.43
2019-03-31T16:42:51.198Z,1.23
2019-03-31T16:45:22.730Z,2.10
2019-03-31T16:47:54.702Z,2.10
2019-03-31T16:50:25.517Z,2.00
2019-03-31T16:52:56.554Z,2.97
2019-03-31T16:55:27.290Z,2.87
2019-03-31T16:57:58.052Z,2.70
2019-03-31T17:00:28.894Z,1.70
2019-03-31T17:03:03.412Z,2.00
2019-03-31T17:05:36.198Z,1.70
2019-03-31T17:08:06.740Z,2.00
2019-03-31T17:10:37.564Z,1.60
2019-03-31T17:13:11.172Z,1.87
2019-03-31T17:15:41.900Z,1.90
2019-03-31T17:18:12.826Z,2.20
2019-03-31T17:20:45.196Z,2.57
2019-03-31T17:23:15.687Z,2.13
2019-03-31T17:25:46.490Z,2.20
2019-03-31T17:28:17.702Z,2.20
2019-03-31T17:30:48.546Z,2.00
2019-03-31T17:33:19.286Z,2.13
2019-03-31T17:35:50.111Z,2.30
2019-03-31T17:38:21.500Z,2.70
2019-03-31T17:40:52.316Z,2.63
2019-03-31T17:43:24.781Z,2.23
2019-03-31T17:45:55.712Z,2.80
2019-03-31T17:48:28.455Z,2.40
2019-03-31T17:54:01.269Z,2.13
2019-03-31T17:56:32.032Z,2.73
2019-03-31T17:59:02.863Z,2.27
2019-03-31T18:01:33.631Z,2.93
2019-03-31T18:04:04.344Z,2.70
2019-03-31T18:06:35.133Z,2.50
2019-03-31T18:09:09.786Z,2.83
2019-03-31T18:11:41.444Z,2.53
2019-03-31T18:14:12.286Z,2.33
2019-03-31T18:16:43.434Z,2.47
2019-03-31T18:19:14.273Z,2.90
2019-03-31T18:21:44.724Z,2.93
2019-03-31T18:24:15.532Z,3.13
2019-03-31T18:26:46.402Z,3.03
2019-03-31T18:29:17.249Z,2.97
2019-03-31T18:31:48.173Z,3.03
2019-03-31T18:34:18.894Z,2.70
2019-03-31T18:36:49.734Z,2.50
2019-03-31T18:39:22.082Z,2.90
2019-03-31T18:41:52.885Z,2.50
2019-03-31T18:44:25.429Z,2.70
2019-03-31T18:46:56.251Z,2.63
2019-03-31T18:49:27.088Z,2.17
2019-03-31T18:51:57.815Z,2.20
2019-03-31T18:54:47.627Z,2.90
2019-03-31T18:57:37.983Z,2.57
2019-03-31T19:00:15.694Z,2.33
2019-03-31T19:03:04.257Z,2.63
2019-03-31T19:05:52.120Z,2.50
2019-03-31T19:08:24.661Z,2.50
2019-03-31T19:10:57.707Z,2.70
2019-03-31T19:13:54.706Z,3.00
2019-03-31T19:16:17.196Z,2.60
2019-03-31T19:19:03.278Z,2.63
2019-03-31T19:21:38.530Z,2.63
2019-03-31T19:24:14.830Z,2.50
2019-03-31T19:26:50.499Z,2.87
2019-03-31T19:29:28.812Z,2.80
2019-03-31T19:32:04.154Z,3.10
2019-03-31T19:34:51.269Z,3.20
2019-03-31T19:37:35.308Z,3.53
2019-03-31T19:40:25.411Z,2.90
2019-03-31T19:43:15.849Z,3.13
2019-03-31T19:45:57.284Z,3.10
2019-03-31T19:48:35.161Z,3.20
2019-03-31T19:51:07.695Z,3.13
2019-03-31T19:53:43.214Z,3.00
2019-03-31T19:56:23.672Z,2.83
2019-03-31T19:59:08.558Z,3.03
2019-03-31T20:01:54.425Z,3.00
2019-03-31T20:04:49.495Z,3.10
2019-03-31T20:07:25.761Z,3.13
2019-03-31T20:10:19.025Z,3.13
2019-03-31T20:13:00.349Z,2.90
2019-03-31T20:15:33.241Z,2.80
2019-03-31T20:18:08.101Z,2.70
2019-03-31T20:20:40.842Z,2.80
2019-03-31T20:23:28.173Z,2.90
2019-03-31T20:26:16.801Z,2.50
2019-03-31T20:28:58.006Z,3.30
2019-03-31T20:31:45.415Z,3.17
2019-03-31T20:34:23.817Z,3.17
2019-03-31T20:37:02.333Z,3.70
2019-03-31T20:39:56.939Z,2.70
2019-03-31T20:42:33.803Z,2.70
2019-03-31T20:45:07.713Z,2.40
2019-03-31T20:47:38.651Z,3.07
2019-03-31T20:50:09.723Z,3.53
2019-03-31T20:52:40.319Z,3.33
2019-03-31T20:55:16.503Z,3.30
2019-03-31T20:57:43.822Z,3.50
2019-03-31T21:00:14.974Z,3.20
2019-03-31T21:02:45.939Z,3.13
2019-03-31T21:05:16.831Z,3.20
2019-03-31T21:07:47.627Z,2.57
2019-03-31T21:10:18.697Z,3.50
2019-03-31T21:12:49.619Z,2.40
2019-03-31T21:15:20.761Z,2.80
2019-03-31T21:17:51.741Z,2.47
2019-03-31T21:20:22.656Z,3.00
2019-03-31T21:22:53.452Z,2.67
2019-03-31T21:25:24.430Z,2.30
2019-03-31T21:27:55.268Z,2.30
2019-03-31T21:30:26.088Z,2.43
2019-03-31T21:32:56.772Z,2.40
2019-03-31T21:35:27.755Z,2.30
2019-03-31T21:37:58.584Z,2.10
2019-03-31T21:40:29.571Z,2.33
2019-03-31T21:43:01.389Z,2.40
2019-03-31T21:45:34.091Z,2.40
2019-03-31T21:48:05.575Z,2.30
2019-03-31T21:50:36.535Z,2.50
2019-03-31T21:53:07.388Z,2.70
2019-03-31T21:55:38.286Z,2.60
2019-03-31T21:58:09.172Z,2.43
2019-03-31T22:00:51.511Z,2.60
2019-03-31T22:03:22.363Z,2.40
2019-03-31T22:05:52.887Z,2.60
2019-03-31T22:08:23.750Z,2.27
2019-03-31T22:10:54.157Z,2.33
2019-03-31T22:13:24.915Z,2.40
2019-03-31T22:15:55.627Z,2.70
2019-03-31T22:18:26.385Z,2.50
2019-03-31T22:20:57.374Z,2.50
2019-03-31T22:23:28.263Z,2.30
2019-03-31T22:25:59.027Z,2.20
2019-03-31T22:28:29.822Z,2.27
2019-03-31T22:31:00.603Z,2.37
2019-03-31T22:33:31.363Z,2.37
2019-03-31T22:36:21.492Z,2.27
2019-03-31T22:38:53.601Z,2.17
2019-03-31T22:41:24.484Z,2.53
2019-03-31T22:43:55.351Z,2.50
2019-03-31T22:46:25.835Z,2.03
2019-03-31T22:48:56.619Z,2.10
2019-03-31T22:51:27.445Z,2.10
2019-03-31T22:53:58.275Z,2.27
2019-03-31T22:56:29.184Z,2.00
2019-03-31T22:59:00.057Z,2.00
2019-03-31T23:01:30.897Z,1.90
2019-03-31T23:04:01.899Z,2.00
2019-03-31T23:06:32.875Z,2.13
2019-03-31T23:09:05.552Z,2.10
2019-03-31T23:11:35.996Z,1.80
2019-03-31T23:14:07.022Z,1.80
2019-03-31T23:16:37.891Z,2.07
2019-03-31T23:19:08.735Z,2.30
2019-03-31T23:21:41.052Z,2.50
2019-03-31T23:24:12.017Z,1.83
2019-03-31T23:26:42.839Z,2.07
2019-03-31T23:29:13.675Z,2.40
2019-03-31T23:31:44.427Z,2.30
2019-03-31T23:34:15.257Z,2.27
2019-03-31T23:36:46.121Z,2.17
2019-03-31T23:39:16.582Z,2.47
2019-03-31T23:41:47.563Z,2.00
2019-03-31T23:44:18.112Z,2.40
2019-03-31T23:46:48.940Z,2.20
2019-03-31T23:49:19.519Z,2.40
2019-03-31T23:51:49.886Z,2.47
2019-03-31T23:54:20.612Z,2.50
2019-03-31T23:56:51.514Z,2.30
2019-03-31T23:59:22.331Z,3.00
